Terminal Aerodrome Forecast
Issued by NWS

Home | Current Version | Previous Version | Text Only | Print | Product List | Glossary Off
Versions: 1 2 3 4 5 6 7 8 9 10 11 12 13

000
FTUS45 KGGW 221100
TAFSDY
TAF
KSDY 221127Z 2212/2312 VRB05KT P6SM BKN150
     FM221400 14015KT P6SM FEW100 BKN200
     FM221700 15018G25KT P6SM BKN200
     FM222200 14020G30KT P6SM BKN120
     FM230600 11015G25KT P6SM -SHRA OVC060
      AMD LTD TO CLD VIS AND WIND=

USA.gov is the U.S. government's official web portal to all federal, state and local government web resources and services.